createdAt,value
2022-07-27T00:01:59.877Z,61.78
2022-07-27T00:04:27.699Z,61.44
2022-07-27T00:06:55.138Z,60.54
2022-07-27T00:09:22.521Z,61.71
2022-07-27T00:11:50.265Z,61.10
2022-07-27T00:14:17.690Z,61.79
2022-07-27T00:16:45.447Z,61.30
2022-07-27T00:19:13.441Z,61.64
2022-07-27T00:21:44.528Z,60.21
2022-07-27T00:24:13.805Z,59.56
2022-07-27T00:26:41.376Z,59.63
2022-07-27T00:29:09.249Z,60.45
2022-07-27T00:31:37.508Z,59.99
2022-07-27T00:34:05.045Z,61.87
2022-07-27T00:36:32.455Z,60.17
2022-07-27T00:39:00.128Z,60.32
2022-07-27T00:41:27.521Z,60.35
2022-07-27T00:43:59.376Z,61.17
2022-07-27T00:46:28.494Z,60.61
2022-07-27T00:48:56.080Z,60.23
2022-07-27T00:51:23.642Z,60.59
2022-07-27T00:53:53.373Z,61.39
2022-07-27T00:56:21.805Z,60.92
2022-07-27T00:58:50.698Z,61.11
2022-07-27T01:01:19.540Z,60.97
2022-07-27T01:03:47.949Z,59.62
2022-07-27T01:06:16.545Z,60.17
2022-07-27T01:09:17.597Z,58.87
2022-07-27T01:11:46.151Z,59.03
2022-07-27T01:14:15.950Z,59.88
2022-07-27T01:16:43.789Z,58.72
2022-07-27T01:19:12.628Z,58.82
2022-07-27T01:21:40.652Z,57.54
2022-07-27T01:24:08.248Z,58.38
2022-07-27T01:26:36.475Z,58.80
2022-07-27T01:29:04.533Z,58.94
2022-07-27T01:31:32.109Z,57.37
2022-07-27T01:33:59.709Z,58.41
2022-07-27T01:36:27.450Z,59.22
2022-07-27T01:38:55.023Z,58.66
2022-07-27T01:41:22.436Z,58.39
2022-07-27T01:43:50.133Z,58.94
2022-07-27T01:46:17.602Z,59.83
2022-07-27T01:48:45.213Z,60.13
2022-07-27T01:51:12.896Z,59.81
2022-07-27T01:53:40.356Z,60.73
2022-07-27T01:56:11.432Z,61.22
2022-07-27T01:58:40.203Z,61.26
2022-07-27T02:01:08.209Z,60.41
2022-07-27T02:03:36.260Z,61.17
2022-07-27T02:06:04.576Z,60.97
2022-07-27T02:08:32.346Z,60.97
2022-07-27T02:11:18.443Z,60.82
2022-07-27T02:13:47.466Z,60.61
2022-07-27T02:16:17.238Z,60.29
2022-07-27T02:18:45.931Z,60.17
2022-07-27T02:21:16.594Z,59.90
2022-07-27T02:23:45.157Z,60.44
2022-07-27T02:26:12.541Z,60.47
2022-07-27T02:28:40.194Z,59.61
2022-07-27T02:31:07.589Z,60.20
2022-07-27T02:33:35.033Z,60.00
2022-07-27T02:36:03.136Z,59.91
2022-07-27T02:38:30.561Z,60.75
2022-07-27T02:40:58.164Z,60.67
2022-07-27T02:43:25.822Z,60.77
2022-07-27T02:45:53.279Z,60.25
2022-07-27T02:48:20.711Z,60.12
2022-07-27T02:50:48.401Z,60.07
2022-07-27T02:53:15.824Z,59.90
2022-07-27T02:55:43.224Z,60.46
2022-07-27T02:58:10.906Z,60.39
2022-07-27T03:00:38.322Z,59.62
2022-07-27T03:03:05.729Z,60.36
2022-07-27T03:05:33.658Z,61.21
2022-07-27T03:08:01.191Z,60.65
2022-07-27T03:10:28.582Z,60.27
2022-07-27T03:12:56.314Z,60.24
2022-07-27T03:15:24.202Z,60.75
2022-07-27T03:17:53.590Z,60.26
2022-07-27T03:20:21.281Z,61.00
2022-07-27T03:22:48.678Z,60.76
2022-07-27T03:25:16.622Z,59.27
2022-07-27T03:27:44.282Z,60.68
2022-07-27T03:30:11.855Z,60.97
2022-07-27T03:32:39.230Z,59.86
2022-07-27T03:35:07.248Z,60.38
2022-07-27T03:37:34.793Z,60.92
2022-07-27T03:40:02.188Z,59.72
2022-07-27T03:42:29.875Z,59.35
2022-07-27T03:44:57.253Z,58.79
2022-07-27T03:47:25.090Z,57.50
2022-07-27T03:49:52.954Z,57.45
2022-07-27T03:52:20.833Z,57.23
2022-07-27T03:54:48.266Z,57.36
2022-07-27T03:57:15.960Z,57.05
2022-07-27T03:59:43.380Z,55.85
2022-07-27T04:02:10.842Z,55.01
2022-07-27T04:04:38.724Z,55.15
2022-07-27T04:07:06.190Z,53.40
2022-07-27T04:09:34.567Z,52.57
2022-07-27T04:12:02.243Z,51.94
2022-07-27T04:14:30.488Z,51.86
2022-07-27T04:16:57.903Z,53.00
2022-07-27T04:19:25.678Z,51.91
2022-07-27T04:21:53.070Z,51.24
2022-07-27T04:24:20.467Z,50.44
2022-07-27T04:26:48.219Z,49.80
2022-07-27T04:29:20.189Z,50.00
2022-07-27T04:31:48.877Z,49.76
2022-07-27T04:34:16.456Z,48.22
2022-07-27T04:36:44.758Z,49.26
2022-07-27T04:39:12.874Z,49.80
2022-07-27T04:41:40.541Z,48.26
2022-07-27T04:44:08.401Z,48.00
2022-07-27T04:46:36.116Z,49.66
2022-07-27T04:49:03.552Z,49.50
2022-07-27T04:51:34.542Z,48.17
2022-07-27T04:54:02.916Z,48.38
2022-07-27T04:56:30.303Z,45.80
2022-07-27T04:58:57.683Z,44.55
2022-07-27T05:01:26.747Z,43.60
2022-07-27T05:03:56.742Z,44.88
2022-07-27T05:06:24.219Z,46.10
2022-07-27T05:08:51.940Z,45.17
2022-07-27T05:11:19.340Z,44.90
2022-07-27T05:13:46.720Z,46.18
2022-07-27T05:16:14.481Z,43.93
2022-07-27T05:18:42.046Z,44.13
2022-07-27T05:21:09.786Z,45.13
2022-07-27T05:23:40.176Z,45.02
2022-07-27T05:26:07.681Z,44.23
2022-07-27T05:28:35.103Z,43.38
2022-07-27T05:31:02.758Z,42.43
2022-07-27T05:33:30.163Z,41.22
2022-07-27T05:35:57.795Z,41.26
2022-07-27T05:38:25.447Z,41.04
2022-07-27T05:40:53.364Z,43.13
2022-07-27T05:43:20.793Z,41.71
2022-07-27T05:45:48.595Z,39.96
2022-07-27T05:48:16.019Z,40.86
2022-07-27T05:50:43.819Z,40.87
2022-07-27T05:53:11.646Z,41.67
2022-07-27T05:55:39.050Z,39.73
2022-07-27T05:58:27.328Z,39.39
2022-07-27T06:00:54.836Z,38.65
2022-07-27T06:03:23.418Z,38.26
2022-07-27T06:05:50.885Z,36.49
2022-07-27T06:08:18.368Z,36.33
2022-07-27T06:10:46.109Z,36.29
2022-07-27T06:13:13.992Z,34.27
2022-07-27T06:15:41.503Z,33.29
2022-07-27T06:18:15.025Z,32.98
2022-07-27T06:20:43.254Z,32.44
2022-07-27T06:23:11.204Z,33.33
2022-07-27T06:25:38.712Z,36.17
2022-07-27T06:28:06.675Z,33.93
2022-07-27T06:30:34.628Z,34.65
2022-07-27T06:33:06.052Z,35.75
2022-07-27T06:35:34.831Z,34.22
2022-07-27T06:38:05.366Z,32.84
2022-07-27T06:40:32.852Z,34.60
2022-07-27T06:43:00.596Z,33.35
2022-07-27T06:45:28.078Z,33.25
2022-07-27T06:47:55.469Z,33.22
2022-07-27T06:50:23.483Z,31.63
2022-07-27T06:52:51.021Z,30.45
2022-07-27T06:55:18.499Z,31.43
2022-07-27T06:57:46.629Z,30.32
2022-07-27T07:00:15.091Z,29.02
2022-07-27T07:02:58.917Z,29.23
2022-07-27T07:05:26.796Z,29.75
2022-07-27T07:07:54.186Z,29.37
2022-07-27T07:10:23.775Z,26.75
2022-07-27T07:12:57.610Z,28.33
2022-07-27T07:15:26.540Z,29.50
2022-07-27T07:17:54.510Z,27.13
2022-07-27T07:20:22.419Z,27.80
2022-07-27T07:22:50.408Z,26.58
2022-07-27T07:25:18.119Z,27.67
2022-07-27T07:27:45.787Z,28.67
2022-07-27T07:30:13.437Z,29.24
2022-07-27T07:32:41.128Z,29.58
2022-07-27T07:35:09.234Z,29.59
2022-07-27T07:37:36.656Z,31.34
2022-07-27T07:40:32.155Z,31.79
2022-07-27T07:42:56.656Z,30.81
2022-07-27T07:45:24.956Z,31.98
2022-07-27T07:47:52.949Z,30.48
2022-07-27T07:50:21.160Z,31.14
2022-07-27T07:52:49.615Z,31.44
2022-07-27T07:55:20.588Z,31.81
2022-07-27T07:57:50.878Z,33.25
2022-07-27T08:00:20.813Z,32.49
2022-07-27T08:02:50.138Z,30.73
2022-07-27T08:05:17.674Z,34.53
2022-07-27T08:07:45.714Z,32.23
2022-07-27T08:10:15.023Z,31.23
2022-07-27T08:12:45.109Z,31.78
2022-07-27T08:15:14.132Z,32.51
2022-07-27T08:17:42.717Z,32.67
2022-07-27T08:20:11.260Z,30.72
2022-07-27T08:22:39.393Z,31.04
2022-07-27T08:25:07.390Z,31.18
2022-07-27T08:27:40.189Z,30.94
2022-07-27T08:30:11.693Z,30.77
2022-07-27T08:32:58.282Z,30.10
2022-07-27T08:35:26.093Z,28.42
2022-07-27T08:37:54.236Z,29.03
2022-07-27T08:43:11.148Z,29.35
2022-07-27T08:45:38.595Z,28.03
2022-07-27T08:48:06.396Z,29.28
2022-07-27T08:50:35.410Z,30.73
2022-07-27T08:53:06.000Z,28.68
2022-07-27T08:55:42.059Z,28.82
2022-07-27T08:58:11.694Z,28.76
2022-07-27T09:00:42.380Z,29.57
2022-07-27T09:03:19.495Z,28.46
2022-07-27T09:05:55.755Z,29.07
2022-07-27T09:08:26.373Z,28.36
2022-07-27T09:10:55.855Z,28.65
2022-07-27T09:13:27.235Z,28.86
2022-07-27T09:18:43.651Z,27.39
2022-07-27T09:21:16.969Z,27.39
2022-07-27T09:23:50.946Z,27.73
2022-07-27T09:26:31.907Z,25.91
2022-07-27T09:29:07.523Z,28.07
2022-07-27T09:31:41.845Z,27.32
2022-07-27T09:34:09.817Z,27.64
2022-07-27T09:36:52.160Z,26.81
2022-07-27T09:39:21.658Z,25.58
2022-07-27T09:41:55.379Z,26.15
2022-07-27T09:44:42.175Z,26.32
2022-07-27T09:47:28.961Z,26.11
2022-07-27T09:49:59.111Z,25.99
2022-07-27T09:52:29.626Z,25.54
2022-07-27T09:55:05.567Z,27.43
2022-07-27T09:57:57.312Z,25.59
2022-07-27T10:00:25.908Z,24.47
2022-07-27T10:02:54.999Z,24.99
2022-07-27T10:05:23.317Z,25.95
2022-07-27T10:07:52.853Z,24.30
2022-07-27T10:10:21.423Z,24.48
2022-07-27T10:12:54.003Z,25.55
2022-07-27T10:15:25.931Z,25.51
2022-07-27T10:18:07.367Z,24.68
2022-07-27T10:20:38.419Z,24.73
2022-07-27T10:23:07.496Z,24.69
2022-07-27T10:25:37.910Z,24.08
2022-07-27T10:28:11.585Z,24.57
2022-07-27T10:30:39.717Z,25.05
2022-07-27T10:33:38.024Z,23.78
2022-07-27T10:36:16.826Z,24.70
2022-07-27T10:38:47.160Z,23.76
2022-07-27T10:41:22.298Z,22.94
2022-07-27T10:43:51.460Z,23.24
2022-07-27T10:46:21.050Z,22.73
2022-07-27T10:48:49.421Z,22.88
2022-07-27T10:51:17.608Z,22.59
2022-07-27T10:56:47.173Z,23.59
2022-07-27T10:59:15.304Z,22.57
2022-07-27T11:01:57.413Z,22.37
2022-07-27T11:04:25.792Z,22.57
2022-07-27T11:10:05.861Z,23.40
2022-07-27T11:12:33.887Z,22.57
2022-07-27T11:15:01.686Z,22.59
2022-07-27T11:20:23.581Z,22.12
2022-07-27T11:23:40.673Z,21.85
2022-07-27T11:25:38.624Z,22.59
2022-07-27T11:28:07.583Z,20.84
2022-07-27T11:30:35.082Z,20.71
2022-07-27T11:33:04.674Z,21.59
2022-07-27T11:35:32.175Z,22.04
2022-07-27T11:38:02.318Z,21.94
2022-07-27T11:41:12.910Z,20.82
2022-07-27T11:43:37.168Z,20.62
2022-07-27T11:46:15.344Z,22.41
2022-07-27T11:49:11.840Z,23.76
2022-07-27T11:51:41.752Z,22.84
2022-07-27T11:54:17.829Z,23.64
2022-07-27T11:56:49.249Z,25.65
2022-07-27T11:59:21.946Z,25.52
2022-07-27T12:01:54.793Z,23.74
2022-07-27T12:04:39.638Z,22.02
2022-07-27T12:07:20.160Z,21.80
2022-07-27T12:09:54.613Z,21.65
2022-07-27T12:12:26.804Z,23.71
2022-07-27T12:14:58.960Z,23.11
2022-07-27T12:17:27.761Z,23.41
2022-07-27T12:19:57.025Z,23.30
2022-07-27T12:22:28.634Z,23.24
2022-07-27T12:24:57.707Z,22.72
2022-07-27T12:27:29.069Z,22.75
2022-07-27T12:29:57.861Z,22.35
2022-07-27T12:32:26.043Z,22.42
2022-07-27T12:34:54.919Z,21.99
2022-07-27T12:37:22.557Z,22.12
2022-07-27T12:39:50.490Z,21.44
2022-07-27T12:42:17.929Z,20.24
2022-07-27T12:44:46.512Z,20.29
2022-07-27T12:47:32.603Z,19.80
2022-07-27T12:50:12.226Z,21.38
2022-07-27T12:52:53.365Z,18.48
2022-07-27T12:55:22.502Z,19.77
2022-07-27T12:57:57.578Z,20.91
2022-07-27T13:00:33.595Z,20.65
2022-07-27T13:03:02.451Z,20.43
2022-07-27T13:05:31.696Z,21.61
2022-07-27T13:07:59.150Z,22.38
2022-07-27T13:10:27.585Z,22.22
2022-07-27T13:12:55.540Z,22.09
2022-07-27T13:15:22.964Z,21.25
2022-07-27T13:17:50.547Z,19.93
2022-07-27T13:20:18.524Z,20.99
2022-07-27T13:22:46.674Z,21.39
2022-07-27T13:25:17.230Z,20.24
2022-07-27T13:27:46.539Z,21.55
2022-07-27T13:30:16.187Z,22.01
2022-07-27T13:32:44.176Z,21.57
2022-07-27T13:35:12.697Z,20.60
2022-07-27T13:37:40.741Z,20.91
2022-07-27T13:40:09.837Z,20.82
2022-07-27T13:42:37.886Z,20.57
2022-07-27T13:45:10.466Z,20.67
2022-07-27T13:47:40.347Z,20.72
2022-07-27T13:50:13.642Z,20.23
2022-07-27T13:52:46.619Z,20.05
2022-07-27T13:55:15.888Z,21.56
2022-07-27T13:57:43.780Z,20.78
2022-07-27T14:00:11.985Z,19.09
2022-07-27T14:02:39.973Z,19.10
2022-07-27T14:05:12.321Z,19.78
2022-07-27T14:07:43.116Z,18.43
2022-07-27T14:10:30.888Z,21.54
2022-07-27T14:13:07.713Z,19.49
2022-07-27T14:15:53.700Z,19.78
2022-07-27T14:18:25.062Z,19.56
2022-07-27T14:20:53.065Z,19.62
2022-07-27T14:23:21.086Z,21.39
2022-07-27T14:25:48.865Z,20.34
2022-07-27T14:28:16.763Z,20.31
2022-07-27T14:30:45.063Z,19.67
2022-07-27T14:33:12.705Z,19.50
2022-07-27T14:35:41.042Z,19.49
2022-07-27T14:38:09.594Z,21.07
2022-07-27T14:40:38.342Z,20.22
2022-07-27T14:43:06.309Z,20.96
2022-07-27T14:45:44.092Z,19.89
2022-07-27T14:48:21.455Z,20.14
2022-07-27T14:50:52.674Z,19.23
2022-07-27T14:53:20.327Z,19.91
2022-07-27T14:55:47.728Z,19.82
2022-07-27T14:58:15.126Z,19.73
2022-07-27T15:00:43.065Z,20.56
2022-07-27T15:03:14.847Z,20.94
2022-07-27T15:05:49.957Z,20.80
2022-07-27T15:08:20.096Z,20.45
2022-07-27T15:10:48.985Z,20.73
2022-07-27T15:13:17.958Z,20.76
2022-07-27T15:15:48.598Z,21.05
2022-07-27T15:18:18.889Z,20.66
2022-07-27T15:20:47.776Z,21.16
2022-07-27T15:23:15.697Z,21.95
2022-07-27T15:25:43.339Z,20.41
2022-07-27T15:28:10.979Z,21.64
2022-07-27T15:30:38.975Z,20.83
2022-07-27T15:33:07.456Z,22.04
2022-07-27T15:35:34.922Z,22.45
2022-07-27T15:38:02.337Z,20.64
2022-07-27T15:40:41.548Z,21.00
2022-07-27T15:43:12.138Z,21.52
2022-07-27T15:45:41.078Z,21.70
2022-07-27T15:48:10.004Z,20.66
2022-07-27T15:50:39.262Z,20.70
2022-07-27T15:53:07.744Z,21.59
2022-07-27T15:55:37.490Z,22.34
2022-07-27T15:58:06.405Z,21.02
2022-07-27T16:00:39.485Z,22.01
2022-07-27T16:03:10.589Z,21.78
2022-07-27T16:05:39.277Z,21.32
2022-07-27T16:08:09.801Z,21.71
2022-07-27T16:10:39.261Z,22.05
2022-07-27T16:13:07.906Z,22.99
2022-07-27T16:15:54.629Z,21.62
2022-07-27T16:18:22.544Z,22.30
2022-07-27T16:20:50.877Z,21.52
2022-07-27T16:23:21.653Z,22.04
2022-07-27T16:26:04.130Z,22.65
2022-07-27T16:28:35.180Z,22.55
2022-07-27T16:31:05.004Z,23.03
2022-07-27T16:33:32.742Z,22.78
2022-07-27T16:36:00.206Z,22.50
2022-07-27T16:38:28.334Z,22.57
2022-07-27T16:40:55.744Z,22.48
2022-07-27T16:43:23.235Z,22.81
2022-07-27T16:46:04.306Z,22.94
2022-07-27T16:48:38.661Z,22.23
2022-07-27T16:51:14.711Z,22.74
2022-07-27T16:53:44.196Z,22.95
2022-07-27T16:56:12.102Z,23.29
2022-07-27T16:58:39.760Z,23.36
2022-07-27T17:01:08.229Z,23.59
2022-07-27T17:03:36.769Z,23.37
2022-07-27T17:06:06.542Z,23.35
2022-07-27T17:08:36.273Z,23.67
2022-07-27T17:11:06.090Z,23.75
2022-07-27T17:13:35.083Z,24.17
2022-07-27T17:16:06.740Z,23.87
2022-07-27T17:18:39.837Z,23.96
2022-07-27T17:21:12.474Z,26.42
2022-07-27T17:23:41.725Z,26.77
2022-07-27T17:26:10.046Z,27.22
2022-07-27T17:28:39.689Z,27.36
2022-07-27T17:31:10.130Z,27.78
2022-07-27T17:33:39.186Z,27.10
2022-07-27T17:36:14.037Z,28.21
2022-07-27T17:38:46.847Z,28.85
2022-07-27T17:41:19.228Z,28.01
2022-07-27T17:43:52.056Z,27.77
2022-07-27T17:46:19.896Z,28.01
2022-07-27T17:48:47.403Z,29.21
2022-07-27T17:51:14.849Z,28.27
2022-07-27T17:53:43.619Z,29.18
2022-07-27T17:56:11.254Z,29.45
2022-07-27T17:58:39.341Z,30.90
2022-07-27T18:01:08.842Z,30.15
2022-07-27T18:03:37.054Z,29.97
2022-07-27T18:06:04.786Z,30.64
2022-07-27T18:08:32.397Z,30.58
2022-07-27T18:11:00.116Z,30.13
2022-07-27T18:13:39.424Z,30.74
2022-07-27T18:16:12.069Z,31.30
2022-07-27T18:18:41.331Z,31.11
2022-07-27T18:21:09.458Z,30.67
2022-07-27T18:23:36.859Z,30.93
2022-07-27T18:26:04.316Z,30.71
2022-07-27T18:28:39.154Z,30.91
2022-07-27T18:31:08.545Z,30.39
2022-07-27T18:33:37.017Z,30.78
2022-07-27T18:36:05.324Z,31.60
2022-07-27T18:38:32.766Z,31.09
2022-07-27T18:41:00.458Z,31.22
2022-07-27T18:43:27.841Z,31.01
2022-07-27T18:45:55.425Z,31.17
2022-07-27T18:48:23.141Z,31.81
2022-07-27T18:50:51.948Z,32.87
2022-07-27T18:53:19.377Z,32.86
2022-07-27T18:55:47.105Z,34.15
2022-07-27T18:58:14.676Z,34.53
2022-07-27T19:00:42.687Z,34.85
2022-07-27T19:03:11.047Z,35.20
2022-07-27T19:05:41.347Z,35.13
2022-07-27T19:08:13.318Z,36.84
2022-07-27T19:10:42.469Z,37.10
2022-07-27T19:13:11.269Z,37.20
2022-07-27T19:15:39.663Z,37.79
2022-07-27T19:18:07.864Z,37.46
2022-07-27T19:20:36.782Z,37.15
2022-07-27T19:23:05.847Z,37.58
2022-07-27T19:25:34.005Z,37.42
2022-07-27T19:28:03.764Z,38.59
2022-07-27T19:30:31.401Z,39.10
2022-07-27T19:32:58.860Z,39.30
2022-07-27T19:35:26.835Z,40.49
2022-07-27T19:37:54.238Z,40.09
2022-07-27T19:43:09.442Z,40.60
2022-07-27T19:45:36.978Z,40.70
2022-07-27T19:48:05.684Z,41.18
2022-07-27T19:50:33.813Z,40.53
2022-07-27T19:53:02.167Z,41.96
2022-07-27T19:55:29.613Z,41.16
2022-07-27T19:57:57.398Z,41.69
2022-07-27T20:00:24.807Z,41.95
2022-07-27T20:02:52.550Z,41.62
2022-07-27T20:05:20.067Z,42.10
2022-07-27T20:07:47.456Z,42.12
2022-07-27T20:10:15.628Z,42.17
2022-07-27T20:12:43.094Z,42.83
2022-07-27T20:15:10.841Z,42.98
2022-07-27T20:17:40.413Z,42.65
2022-07-27T20:20:09.744Z,43.50
2022-07-27T20:22:39.268Z,44.15
2022-07-27T20:25:09.923Z,43.53
2022-07-27T20:27:38.009Z,44.48
2022-07-27T20:30:05.850Z,44.04
2022-07-27T20:32:33.782Z,44.70
2022-07-27T20:35:01.489Z,43.92
2022-07-27T20:37:28.900Z,44.31
2022-07-27T20:39:56.559Z,43.77
2022-07-27T20:42:24.002Z,43.17
2022-07-27T20:44:51.431Z,43.45
2022-07-27T20:47:19.107Z,42.20
2022-07-27T20:49:46.492Z,42.40
2022-07-27T20:52:14.035Z,42.56
2022-07-27T20:54:41.930Z,41.62
2022-07-27T20:57:09.349Z,41.58
2022-07-27T20:59:36.903Z,40.85
2022-07-27T21:02:05.207Z,40.67
2022-07-27T21:04:32.658Z,40.65
2022-07-27T21:07:00.072Z,40.32
2022-07-27T21:09:27.762Z,40.59
2022-07-27T21:11:55.157Z,40.89
2022-07-27T21:14:22.543Z,41.25
2022-07-27T21:16:50.592Z,41.53
2022-07-27T21:19:20.883Z,40.43
2022-07-27T21:21:48.522Z,40.01
2022-07-27T21:24:17.531Z,40.85
2022-07-27T21:26:48.615Z,42.56
2022-07-27T21:29:17.295Z,41.84
2022-07-27T21:31:48.150Z,42.61
2022-07-27T21:34:19.414Z,42.15
2022-07-27T21:36:47.674Z,43.01
2022-07-27T21:39:15.154Z,43.18
2022-07-27T21:41:43.850Z,42.60
2022-07-27T21:44:11.651Z,43.10
2022-07-27T21:46:39.392Z,43.17
2022-07-27T21:49:07.246Z,42.67
2022-07-27T21:51:34.713Z,43.55
2022-07-27T21:54:02.191Z,44.01
2022-07-27T21:56:29.874Z,43.38
2022-07-27T21:58:57.820Z,45.14
2022-07-27T22:01:25.636Z,45.40
2022-07-27T22:03:53.461Z,46.70
2022-07-27T22:06:21.001Z,44.57
2022-07-27T22:08:48.864Z,45.05
2022-07-27T22:11:16.526Z,44.79
2022-07-27T22:13:43.990Z,43.79
2022-07-27T22:16:13.293Z,43.20
2022-07-27T22:18:41.043Z,44.32
2022-07-27T22:21:08.856Z,43.69
2022-07-27T22:23:36.273Z,43.91
2022-07-27T22:26:03.937Z,44.33
2022-07-27T22:28:31.375Z,44.64
2022-07-27T22:30:59.682Z,43.81
2022-07-27T22:33:46.446Z,43.92
2022-07-27T22:36:13.945Z,43.15
2022-07-27T22:38:41.403Z,44.09
2022-07-27T22:41:09.059Z,46.57
2022-07-27T22:43:36.536Z,46.56
2022-07-27T22:46:04.851Z,45.27
2022-07-27T22:48:32.875Z,46.82
2022-07-27T22:51:00.325Z,47.13
2022-07-27T22:53:27.736Z,45.67
2022-07-27T22:55:55.519Z,45.92
2022-07-27T22:58:23.031Z,45.67
2022-07-27T23:00:50.716Z,46.33
2022-07-27T23:03:20.207Z,45.33
2022-07-27T23:05:47.685Z,45.05
2022-07-27T23:08:15.146Z,45.49
2022-07-27T23:10:48.698Z,45.08
2022-07-27T23:13:34.846Z,45.91
2022-07-27T23:16:02.624Z,45.83
2022-07-27T23:18:30.015Z,45.62
2022-07-27T23:20:57.398Z,44.37
2022-07-27T23:23:27.688Z,44.27
2022-07-27T23:25:55.257Z,44.90
2022-07-27T23:28:22.659Z,44.95
2022-07-27T23:30:51.513Z,44.56
2022-07-27T23:33:18.959Z,43.73
2022-07-27T23:35:46.380Z,44.17
2022-07-27T23:38:14.055Z,43.30
2022-07-27T23:40:41.450Z,43.10
2022-07-27T23:43:08.864Z,43.32
2022-07-27T23:45:36.586Z,43.61
2022-07-27T23:48:04.046Z,42.66
2022-07-27T23:50:31.424Z,42.42
2022-07-27T23:52:59.063Z,41.95
2022-07-27T23:55:26.891Z,41.60
2022-07-27T23:57:55.011Z,41.53
